sensor_id;sensor_type;location;lat;lon;timestamp;temperature;humidity
66670;DHT22;53568;52.164;4.472;2022-07-22T00:00:51;18.56;67.95
66670;DHT22;53568;52.164;4.472;2022-07-22T00:03:16;18.51;68.05
66670;DHT22;53568;52.164;4.472;2022-07-22T00:05:42;18.56;68.10
66670;DHT22;53568;52.164;4.472;2022-07-22T00:08:07;18.57;68.04
66670;DHT22;53568;52.164;4.472;2022-07-22T00:10:33;18.66;67.80
66670;DHT22;53568;52.164;4.472;2022-07-22T00:12:59;18.57;67.90
66670;DHT22;53568;52.164;4.472;2022-07-22T00:15:25;18.55;68.12
66670;DHT22;53568;52.164;4.472;2022-07-22T00:17:51;18.55;67.74
66670;DHT22;53568;52.164;4.472;2022-07-22T00:20:16;18.59;67.55
66670;DHT22;53568;52.164;4.472;2022-07-22T00:22:42;18.60;67.39
66670;DHT22;53568;52.164;4.472;2022-07-22T00:25:07;18.57;67.17
66670;DHT22;53568;52.164;4.472;2022-07-22T00:27:33;18.57;67.07
66670;DHT22;53568;52.164;4.472;2022-07-22T00:29:58;18.52;66.83
66670;DHT22;53568;52.164;4.472;2022-07-22T00:32:25;18.65;66.50
66670;DHT22;53568;52.164;4.472;2022-07-22T00:34:50;18.56;66.53
66670;DHT22;53568;52.164;4.472;2022-07-22T00:37:16;18.52;66.86
66670;DHT22;53568;52.164;4.472;2022-07-22T00:39:41;18.60;66.58
66670;DHT22;53568;52.164;4.472;2022-07-22T00:42:07;18.48;66.80
66670;DHT22;53568;52.164;4.472;2022-07-22T00:44:32;18.51;66.74
66670;DHT22;53568;52.164;4.472;2022-07-22T00:46:58;18.48;66.61
66670;DHT22;53568;52.164;4.472;2022-07-22T00:49:23;18.39;66.97
66670;DHT22;53568;52.164;4.472;2022-07-22T00:51:49;18.55;66.52
66670;DHT22;53568;52.164;4.472;2022-07-22T00:54:15;18.53;66.05
66670;DHT22;53568;52.164;4.472;2022-07-22T00:56:40;18.46;66.68
66670;DHT22;53568;52.164;4.472;2022-07-22T00:59:09;18.43;66.75
66670;DHT22;53568;52.164;4.472;2022-07-22T01:01:35;18.48;66.84
66670;DHT22;53568;52.164;4.472;2022-07-22T01:04:01;18.48;66.98
66670;DHT22;53568;52.164;4.472;2022-07-22T01:06:28;18.38;67.40
66670;DHT22;53568;52.164;4.472;2022-07-22T01:08:55;18.41;67.50
66670;DHT22;53568;52.164;4.472;2022-07-22T01:11:22;18.41;67.66
66670;DHT22;53568;52.164;4.472;2022-07-22T01:13:48;18.56;67.21
66670;DHT22;53568;52.164;4.472;2022-07-22T01:16:15;18.60;66.88
66670;DHT22;53568;52.164;4.472;2022-07-22T01:18:41;18.60;66.94
66670;DHT22;53568;52.164;4.472;2022-07-22T01:21:09;18.53;67.25
66670;DHT22;53568;52.164;4.472;2022-07-22T01:23:35;18.48;67.41
66670;DHT22;53568;52.164;4.472;2022-07-22T01:26:02;18.53;67.04
66670;DHT22;53568;52.164;4.472;2022-07-22T01:28:28;18.52;67.22
66670;DHT22;53568;52.164;4.472;2022-07-22T01:30:53;18.53;67.25
66670;DHT22;53568;52.164;4.472;2022-07-22T01:33:20;18.59;67.24
66670;DHT22;53568;52.164;4.472;2022-07-22T01:35:47;18.65;66.89
66670;DHT22;53568;52.164;4.472;2022-07-22T01:38:13;18.53;67.39
66670;DHT22;53568;52.164;4.472;2022-07-22T01:40:40;18.43;67.54
66670;DHT22;53568;52.164;4.472;2022-07-22T01:43:06;18.55;67.51
66670;DHT22;53568;52.164;4.472;2022-07-22T01:45:33;18.49;67.18
66670;DHT22;53568;52.164;4.472;2022-07-22T01:47:58;18.43;67.39
66670;DHT22;53568;52.164;4.472;2022-07-22T01:50:24;18.51;67.11
66670;DHT22;53568;52.164;4.472;2022-07-22T01:52:50;18.65;66.53
66670;DHT22;53568;52.164;4.472;2022-07-22T01:55:16;18.63;66.43
66670;DHT22;53568;52.164;4.472;2022-07-22T01:57:42;18.69;66.11
66670;DHT22;53568;52.164;4.472;2022-07-22T02:00:09;18.62;66.21
66670;DHT22;53568;52.164;4.472;2022-07-22T02:02:35;18.59;65.82
66670;DHT22;53568;52.164;4.472;2022-07-22T02:05:03;18.63;65.81
66670;DHT22;53568;52.164;4.472;2022-07-22T02:07:28;18.56;65.31
66670;DHT22;53568;52.164;4.472;2022-07-22T02:09:54;18.70;64.99
66670;DHT22;53568;52.164;4.472;2022-07-22T02:12:20;18.76;64.70
66670;DHT22;53568;52.164;4.472;2022-07-22T02:14:46;18.67;65.20
66670;DHT22;53568;52.164;4.472;2022-07-22T02:17:12;18.77;64.86
66670;DHT22;53568;52.164;4.472;2022-07-22T02:19:38;18.79;64.79
66670;DHT22;53568;52.164;4.472;2022-07-22T02:22:03;18.77;65.11
66670;DHT22;53568;52.164;4.472;2022-07-22T02:24:29;18.92;63.85
66670;DHT22;53568;52.164;4.472;2022-07-22T02:26:54;18.83;64.89
66670;DHT22;53568;52.164;4.472;2022-07-22T02:29:20;18.87;64.96
66670;DHT22;53568;52.164;4.472;2022-07-22T02:31:45;18.86;65.52
66670;DHT22;53568;52.164;4.472;2022-07-22T02:34:11;18.70;66.54
66670;DHT22;53568;52.164;4.472;2022-07-22T02:36:37;18.52;67.53
66670;DHT22;53568;52.164;4.472;2022-07-22T02:39:03;18.36;68.13
66670;DHT22;53568;52.164;4.472;2022-07-22T02:41:29;18.28;68.39
66670;DHT22;53568;52.164;4.472;2022-07-22T02:43:55;18.19;68.78
66670;DHT22;53568;52.164;4.472;2022-07-22T02:46:22;18.36;68.41
66670;DHT22;53568;52.164;4.472;2022-07-22T02:48:47;18.36;68.39
66670;DHT22;53568;52.164;4.472;2022-07-22T02:51:13;18.36;68.39
66670;DHT22;53568;52.164;4.472;2022-07-22T02:53:39;18.26;68.62
66670;DHT22;53568;52.164;4.472;2022-07-22T02:56:04;18.24;68.83
66670;DHT22;53568;52.164;4.472;2022-07-22T02:58:30;18.18;68.31
66670;DHT22;53568;52.164;4.472;2022-07-22T03:00:55;18.29;68.34
66670;DHT22;53568;52.164;4.472;2022-07-22T03:03:21;18.29;67.74
66670;DHT22;53568;52.164;4.472;2022-07-22T03:05:46;18.33;67.54
66670;DHT22;53568;52.164;4.472;2022-07-22T03:08:12;18.39;67.33
66670;DHT22;53568;52.164;4.472;2022-07-22T03:10:38;18.35;67.09
66670;DHT22;53568;52.164;4.472;2022-07-22T03:13:03;18.45;66.76
66670;DHT22;53568;52.164;4.472;2022-07-22T03:15:29;18.45;66.43
66670;DHT22;53568;52.164;4.472;2022-07-22T03:17:54;18.35;66.97
66670;DHT22;53568;52.164;4.472;2022-07-22T03:20:20;18.45;66.74
66670;DHT22;53568;52.164;4.472;2022-07-22T03:22:46;18.45;66.72
66670;DHT22;53568;52.164;4.472;2022-07-22T03:25:11;18.51;66.27
66670;DHT22;53568;52.164;4.472;2022-07-22T03:27:37;18.59;65.81
66670;DHT22;53568;52.164;4.472;2022-07-22T03:30:04;18.60;65.89
66670;DHT22;53568;52.164;4.472;2022-07-22T03:32:30;18.57;65.56
66670;DHT22;53568;52.164;4.472;2022-07-22T03:34:55;18.52;65.69
66670;DHT22;53568;52.164;4.472;2022-07-22T03:37:21;18.32;66.26
66670;DHT22;53568;52.164;4.472;2022-07-22T03:39:46;18.38;65.97
66670;DHT22;53568;52.164;4.472;2022-07-22T03:42:12;18.35;66.16
66670;DHT22;53568;52.164;4.472;2022-07-22T03:44:37;18.33;65.48
66670;DHT22;53568;52.164;4.472;2022-07-22T03:47:03;18.15;65.49
66670;DHT22;53568;52.164;4.472;2022-07-22T03:49:30;18.11;65.67
66670;DHT22;53568;52.164;4.472;2022-07-22T03:51:55;18.16;65.40
66670;DHT22;53568;52.164;4.472;2022-07-22T03:54:21;18.25;65.14
66670;DHT22;53568;52.164;4.472;2022-07-22T03:56:46;18.22;65.28
66670;DHT22;53568;52.164;4.472;2022-07-22T03:59:12;18.26;64.77
66670;DHT22;53568;52.164;4.472;2022-07-22T04:01:37;18.16;64.23
66670;DHT22;53568;52.164;4.472;2022-07-22T04:04:04;18.21;63.93
66670;DHT22;53568;52.164;4.472;2022-07-22T04:06:29;18.22;63.67
66670;DHT22;53568;52.164;4.472;2022-07-22T04:08:55;18.26;63.70
66670;DHT22;53568;52.164;4.472;2022-07-22T04:11:21;18.32;63.43
66670;DHT22;53568;52.164;4.472;2022-07-22T04:13:46;18.39;63.29
66670;DHT22;53568;52.164;4.472;2022-07-22T04:16:12;18.59;63.14
66670;DHT22;53568;52.164;4.472;2022-07-22T04:18:37;18.69;62.73
66670;DHT22;53568;52.164;4.472;2022-07-22T04:21:03;18.75;62.25
66670;DHT22;53568;52.164;4.472;2022-07-22T04:23:28;18.65;61.90
66670;DHT22;53568;52.164;4.472;2022-07-22T04:25:54;18.65;61.86
66670;DHT22;53568;52.164;4.472;2022-07-22T04:28:20;18.75;61.81
66670;DHT22;53568;52.164;4.472;2022-07-22T04:30:46;18.86;61.77
66670;DHT22;53568;52.164;4.472;2022-07-22T04:33:11;18.75;62.06
66670;DHT22;53568;52.164;4.472;2022-07-22T04:35:37;18.79;62.07
66670;DHT22;53568;52.164;4.472;2022-07-22T04:38:03;18.76;62.02
66670;DHT22;53568;52.164;4.472;2022-07-22T04:40:29;18.76;62.27
66670;DHT22;53568;52.164;4.472;2022-07-22T04:42:54;18.77;62.18
66670;DHT22;53568;52.164;4.472;2022-07-22T04:45:20;18.65;62.98
66670;DHT22;53568;52.164;4.472;2022-07-22T04:47:45;18.75;62.77
66670;DHT22;53568;52.164;4.472;2022-07-22T04:50:11;18.73;63.15
66670;DHT22;53568;52.164;4.472;2022-07-22T04:52:37;18.75;63.53
66670;DHT22;53568;52.164;4.472;2022-07-22T04:55:03;18.51;64.81
66670;DHT22;53568;52.164;4.472;2022-07-22T04:57:28;18.63;64.68
66670;DHT22;53568;52.164;4.472;2022-07-22T04:59:54;18.55;65.21
66670;DHT22;53568;52.164;4.472;2022-07-22T05:02:19;18.45;65.82
66670;DHT22;53568;52.164;4.472;2022-07-22T05:04:45;18.48;65.80
66670;DHT22;53568;52.164;4.472;2022-07-22T05:07:11;18.52;65.83
66670;DHT22;53568;52.164;4.472;2022-07-22T05:09:37;18.56;65.91
66670;DHT22;53568;52.164;4.472;2022-07-22T05:12:03;18.69;65.26
66670;DHT22;53568;52.164;4.472;2022-07-22T05:14:29;18.76;64.88
66670;DHT22;53568;52.164;4.472;2022-07-22T05:16:55;18.77;65.10
66670;DHT22;53568;52.164;4.472;2022-07-22T05:19:20;18.87;64.80
66670;DHT22;53568;52.164;4.472;2022-07-22T05:21:46;18.82;64.98
66670;DHT22;53568;52.164;4.472;2022-07-22T05:24:11;18.87;64.62
66670;DHT22;53568;52.164;4.472;2022-07-22T05:26:37;18.85;64.85
66670;DHT22;53568;52.164;4.472;2022-07-22T05:29:03;18.75;65.45
66670;DHT22;53568;52.164;4.472;2022-07-22T05:31:28;18.75;65.31
66670;DHT22;53568;52.164;4.472;2022-07-22T05:33:54;18.62;65.91
66670;DHT22;53568;52.164;4.472;2022-07-22T05:36:20;18.62;66.12
66670;DHT22;53568;52.164;4.472;2022-07-22T05:38:46;18.62;66.34
66670;DHT22;53568;52.164;4.472;2022-07-22T05:41:11;18.70;65.58
66670;DHT22;53568;52.164;4.472;2022-07-22T05:43:37;18.56;66.32
66670;DHT22;53568;52.164;4.472;2022-07-22T05:46:02;18.46;66.79
66670;DHT22;53568;52.164;4.472;2022-07-22T05:48:41;18.39;67.23
66670;DHT22;53568;52.164;4.472;2022-07-22T05:51:11;18.41;67.07
66670;DHT22;53568;52.164;4.472;2022-07-22T05:53:37;18.48;67.03
66670;DHT22;53568;52.164;4.472;2022-07-22T05:56:03;18.55;66.96
66670;DHT22;53568;52.164;4.472;2022-07-22T05:58:29;18.73;66.55
66670;DHT22;53568;52.164;4.472;2022-07-22T06:00:54;18.80;65.83
66670;DHT22;53568;52.164;4.472;2022-07-22T06:03:21;18.93;65.71
66670;DHT22;53568;52.164;4.472;2022-07-22T06:05:46;18.99;65.58
66670;DHT22;53568;52.164;4.472;2022-07-22T06:08:12;19.07;64.45
66670;DHT22;53568;52.164;4.472;2022-07-22T06:10:37;18.82;65.98
66670;DHT22;53568;52.164;4.472;2022-07-22T06:13:03;18.59;66.69
66670;DHT22;53568;52.164;4.472;2022-07-22T06:15:28;18.57;66.61
66670;DHT22;53568;52.164;4.472;2022-07-22T06:17:54;18.55;66.67
66670;DHT22;53568;52.164;4.472;2022-07-22T06:20:19;18.41;66.86
66670;DHT22;53568;52.164;4.472;2022-07-22T06:22:45;18.52;67.05
66670;DHT22;53568;52.164;4.472;2022-07-22T06:25:10;18.65;66.44
66670;DHT22;53568;52.164;4.472;2022-07-22T06:27:36;18.69;66.18
66670;DHT22;53568;52.164;4.472;2022-07-22T06:30:02;18.65;66.48
66670;DHT22;53568;52.164;4.472;2022-07-22T06:32:28;18.63;66.61
66670;DHT22;53568;52.164;4.472;2022-07-22T06:34:54;18.66;66.50
66670;DHT22;53568;52.164;4.472;2022-07-22T06:37:19;18.69;65.77
66670;DHT22;53568;52.164;4.472;2022-07-22T06:39:45;18.67;65.95
66670;DHT22;53568;52.164;4.472;2022-07-22T06:42:12;18.69;66.09
66670;DHT22;53568;52.164;4.472;2022-07-22T06:44:37;18.67;65.60
66670;DHT22;53568;52.164;4.472;2022-07-22T06:47:03;18.63;65.73
66670;DHT22;53568;52.164;4.472;2022-07-22T06:49:28;18.65;65.34
66670;DHT22;53568;52.164;4.472;2022-07-22T06:51:54;18.73;64.95
66670;DHT22;53568;52.164;4.472;2022-07-22T06:54:19;18.72;64.81
66670;DHT22;53568;52.164;4.472;2022-07-22T06:56:45;18.77;64.47
66670;DHT22;53568;52.164;4.472;2022-07-22T06:59:10;18.75;64.22
66670;DHT22;53568;52.164;4.472;2022-07-22T07:01:36;18.85;64.18
66670;DHT22;53568;52.164;4.472;2022-07-22T07:04:01;18.77;64.33
66670;DHT22;53568;52.164;4.472;2022-07-22T07:06:27;18.95;64.47
66670;DHT22;53568;52.164;4.472;2022-07-22T07:08:53;19.07;63.38
66670;DHT22;53568;52.164;4.472;2022-07-22T07:11:18;19.20;62.85
66670;DHT22;53568;52.164;4.472;2022-07-22T07:13:50;19.26;62.90
66670;DHT22;53568;52.164;4.472;2022-07-22T07:16:15;19.33;63.17
66670;DHT22;53568;52.164;4.472;2022-07-22T07:18:41;19.41;62.28
66670;DHT22;53568;52.164;4.472;2022-07-22T07:21:06;19.37;61.71
66670;DHT22;53568;52.164;4.472;2022-07-22T07:23:32;19.13;62.13
66670;DHT22;53568;52.164;4.472;2022-07-22T07:25:57;19.16;62.18
66670;DHT22;53568;52.164;4.472;2022-07-22T07:28:23;19.19;62.33
66670;DHT22;53568;52.164;4.472;2022-07-22T07:30:49;19.19;61.54
66670;DHT22;53568;52.164;4.472;2022-07-22T07:33:15;19.24;61.16
66670;DHT22;53568;52.164;4.472;2022-07-22T07:35:40;19.31;60.97
66670;DHT22;53568;52.164;4.472;2022-07-22T07:38:06;19.19;61.71
66670;DHT22;53568;52.164;4.472;2022-07-22T07:40:32;19.30;61.37
66670;DHT22;53568;52.164;4.472;2022-07-22T07:42:57;19.34;61.07
66670;DHT22;53568;52.164;4.472;2022-07-22T07:45:23;19.33;60.82
66670;DHT22;53568;52.164;4.472;2022-07-22T07:47:48;19.27;61.52
66670;DHT22;53568;52.164;4.472;2022-07-22T07:50:14;19.30;61.50
66670;DHT22;53568;52.164;4.472;2022-07-22T07:52:42;19.44;61.86
66670;DHT22;53568;52.164;4.472;2022-07-22T07:55:09;19.55;61.18
66670;DHT22;53568;52.164;4.472;2022-07-22T07:57:36;19.54;60.29
66670;DHT22;53568;52.164;4.472;2022-07-22T08:00:05;19.37;60.46
66670;DHT22;53568;52.164;4.472;2022-07-22T08:02:31;19.41;60.88
66670;DHT22;53568;52.164;4.472;2022-07-22T08:04:56;19.21;61.37
66670;DHT22;53568;52.164;4.472;2022-07-22T08:07:22;19.13;61.86
66670;DHT22;53568;52.164;4.472;2022-07-22T08:09:47;19.27;62.19
66670;DHT22;53568;52.164;4.472;2022-07-22T08:12:13;19.49;61.37
66670;DHT22;53568;52.164;4.472;2022-07-22T08:14:39;19.58;61.21
66670;DHT22;53568;52.164;4.472;2022-07-22T08:17:04;19.74;60.76
66670;DHT22;53568;52.164;4.472;2022-07-22T08:19:30;19.92;60.10
66670;DHT22;53568;52.164;4.472;2022-07-22T08:21:56;19.67;59.19
66670;DHT22;53568;52.164;4.472;2022-07-22T08:24:21;19.82;58.99
66670;DHT22;53568;52.164;4.472;2022-07-22T08:26:47;19.91;59.16
66670;DHT22;53568;52.164;4.472;2022-07-22T08:29:12;20.05;58.08
66670;DHT22;53568;52.164;4.472;2022-07-22T08:31:38;20.21;57.80
66670;DHT22;53568;52.164;4.472;2022-07-22T08:34:04;20.14;58.18
66670;DHT22;53568;52.164;4.472;2022-07-22T08:36:30;20.01;58.14
66670;DHT22;53568;52.164;4.472;2022-07-22T08:38:57;19.67;58.59
66670;DHT22;53568;52.164;4.472;2022-07-22T08:41:23;19.61;58.94
66670;DHT22;53568;52.164;4.472;2022-07-22T08:43:50;19.49;58.95
66670;DHT22;53568;52.164;4.472;2022-07-22T08:46:16;19.40;59.37
66670;DHT22;53568;52.164;4.472;2022-07-22T08:48:42;19.41;59.46
66670;DHT22;53568;52.164;4.472;2022-07-22T08:51:08;19.24;59.97
66670;DHT22;53568;52.164;4.472;2022-07-22T08:53:33;19.37;59.43
66670;DHT22;53568;52.164;4.472;2022-07-22T08:58:52;19.40;58.49
66670;DHT22;53568;52.164;4.472;2022-07-22T09:01:18;19.19;60.22
66670;DHT22;53568;52.164;4.472;2022-07-22T09:03:48;19.06;60.76
66670;DHT22;53568;52.164;4.472;2022-07-22T09:06:17;18.93;61.16
66670;DHT22;53568;52.164;4.472;2022-07-22T09:09:04;18.89;61.36
66670;DHT22;53568;52.164;4.472;2022-07-22T09:11:31;19.02;60.54
66670;DHT22;53568;52.164;4.472;2022-07-22T09:14:00;19.21;60.11
66670;DHT22;53568;52.164;4.472;2022-07-22T09:16:47;19.49;59.38
66670;DHT22;53568;52.164;4.472;2022-07-22T09:19:14;19.61;59.28
66670;DHT22;53568;52.164;4.472;2022-07-22T09:21:45;19.77;59.27
66670;DHT22;53568;52.164;4.472;2022-07-22T09:24:33;20.02;58.42
66670;DHT22;53568;52.164;4.472;2022-07-22T09:26:59;20.17;57.75
66670;DHT22;53568;52.164;4.472;2022-07-22T09:29:25;20.08;58.03
66670;DHT22;53568;52.164;4.472;2022-07-22T09:31:52;20.11;58.30
66670;DHT22;53568;52.164;4.472;2022-07-22T09:34:29;20.11;58.56
66670;DHT22;53568;52.164;4.472;2022-07-22T09:36:58;19.94;57.52
66670;DHT22;53568;52.164;4.472;2022-07-22T09:42:04;19.82;58.24
66670;DHT22;53568;52.164;4.472;2022-07-22T09:44:30;19.88;58.45
66670;DHT22;53568;52.164;4.472;2022-07-22T09:46:56;19.89;58.34
66670;DHT22;53568;52.164;4.472;2022-07-22T09:49:33;19.55;58.45
66670;DHT22;53568;52.164;4.472;2022-07-22T09:52:00;19.49;58.86
66670;DHT22;53568;52.164;4.472;2022-07-22T09:54:28;19.40;58.62
66670;DHT22;53568;52.164;4.472;2022-07-22T09:56:55;19.53;58.23
66670;DHT22;53568;52.164;4.472;2022-07-22T09:59:20;19.78;58.02
66670;DHT22;53568;52.164;4.472;2022-07-22T10:01:47;20.04;56.69
66670;DHT22;53568;52.164;4.472;2022-07-22T10:04:19;20.24;56.08
66670;DHT22;53568;52.164;4.472;2022-07-22T10:06:47;20.41;55.22
66670;DHT22;53568;52.164;4.472;2022-07-22T10:09:16;20.19;54.76
66670;DHT22;53568;52.164;4.472;2022-07-22T10:11:42;20.26;55.54
66670;DHT22;53568;52.164;4.472;2022-07-22T10:14:14;19.91;56.31
66670;DHT22;53568;52.164;4.472;2022-07-22T10:16:40;20.07;56.53
66670;DHT22;53568;52.164;4.472;2022-07-22T10:19:06;19.89;55.40
66670;DHT22;53568;52.164;4.472;2022-07-22T10:21:34;20.01;55.24
66670;DHT22;53568;52.164;4.472;2022-07-22T10:26:54;19.91;55.23
66670;DHT22;53568;52.164;4.472;2022-07-22T10:29:42;20.09;54.36
66670;DHT22;53568;52.164;4.472;2022-07-22T10:35:23;20.28;54.77
66670;DHT22;53568;52.164;4.472;2022-07-22T10:45:24;19.95;55.04
66670;DHT22;53568;52.164;4.472;2022-07-22T10:55:34;20.17;54.26
66670;DHT22;53568;52.164;4.472;2022-07-22T11:01:06;20.25;54.07
66670;DHT22;53568;52.164;4.472;2022-07-22T11:03:35;20.41;53.09
66670;DHT22;53568;52.164;4.472;2022-07-22T11:08:40;20.85;52.30
66670;DHT22;53568;52.164;4.472;2022-07-22T11:11:05;21.06;51.87
66670;DHT22;53568;52.164;4.472;2022-07-22T11:13:36;20.96;52.49
66670;DHT22;53568;52.164;4.472;2022-07-22T11:16:15;20.85;52.27
66670;DHT22;53568;52.164;4.472;2022-07-22T11:18:51;20.87;52.52
66670;DHT22;53568;52.164;4.472;2022-07-22T11:21:23;20.82;52.22
66670;DHT22;53568;52.164;4.472;2022-07-22T11:23:51;20.46;53.62
66670;DHT22;53568;52.164;4.472;2022-07-22T11:26:24;20.56;53.62
66670;DHT22;53568;52.164;4.472;2022-07-22T11:28:50;20.85;53.41
66670;DHT22;53568;52.164;4.472;2022-07-22T11:31:18;20.89;53.03
66670;DHT22;53568;52.164;4.472;2022-07-22T11:33:44;20.66;52.52
66670;DHT22;53568;52.164;4.472;2022-07-22T11:36:10;20.39;53.01
66670;DHT22;53568;52.164;4.472;2022-07-22T11:38:54;20.31;53.15
66670;DHT22;53568;52.164;4.472;2022-07-22T11:41:20;20.39;52.87
66670;DHT22;53568;52.164;4.472;2022-07-22T11:43:48;20.33;53.51
66670;DHT22;53568;52.164;4.472;2022-07-22T11:46:17;20.45;52.96
66670;DHT22;53568;52.164;4.472;2022-07-22T11:48:44;20.62;52.31
66670;DHT22;53568;52.164;4.472;2022-07-22T11:51:11;20.95;51.16
66670;DHT22;53568;52.164;4.472;2022-07-22T11:53:41;21.27;50.51
66670;DHT22;53568;52.164;4.472;2022-07-22T11:56:09;21.30;51.21
66670;DHT22;53568;52.164;4.472;2022-07-22T12:01:03;21.06;51.25
66670;DHT22;53568;52.164;4.472;2022-07-22T12:03:31;20.87;52.05
66670;DHT22;53568;52.164;4.472;2022-07-22T12:05:57;20.57;52.56
66670;DHT22;53568;52.164;4.472;2022-07-22T12:08:23;20.72;52.90
66670;DHT22;53568;52.164;4.472;2022-07-22T12:10:49;20.77;52.39
66670;DHT22;53568;52.164;4.472;2022-07-22T12:13:14;20.93;52.23
66670;DHT22;53568;52.164;4.472;2022-07-22T12:15:40;21.03;51.93
66670;DHT22;53568;52.164;4.472;2022-07-22T12:18:23;21.04;52.07
66670;DHT22;53568;52.164;4.472;2022-07-22T12:20:51;20.93;53.79
66670;DHT22;53568;52.164;4.472;2022-07-22T12:23:17;20.68;54.42
66670;DHT22;53568;52.164;4.472;2022-07-22T12:25:59;20.45;54.99
66670;DHT22;53568;52.164;4.472;2022-07-22T12:28:25;20.53;55.24
66670;DHT22;53568;52.164;4.472;2022-07-22T12:30:53;20.61;55.14
66670;DHT22;53568;52.164;4.472;2022-07-22T12:33:20;20.75;55.34
66670;DHT22;53568;52.164;4.472;2022-07-22T12:36:04;20.80;55.08
66670;DHT22;53568;52.164;4.472;2022-07-22T12:38:30;20.83;53.64
66670;DHT22;53568;52.164;4.472;2022-07-22T12:40:56;20.71;55.24
66670;DHT22;53568;52.164;4.472;2022-07-22T12:43:26;20.61;54.56
66670;DHT22;53568;52.164;4.472;2022-07-22T12:45:52;20.73;55.09
66670;DHT22;53568;52.164;4.472;2022-07-22T12:48:18;20.65;55.49
66670;DHT22;53568;52.164;4.472;2022-07-22T12:50:54;20.63;55.67
66670;DHT22;53568;52.164;4.472;2022-07-22T12:53:22;20.62;55.98
66670;DHT22;53568;52.164;4.472;2022-07-22T12:55:53;20.63;56.32
66670;DHT22;53568;52.164;4.472;2022-07-22T12:58:30;20.63;55.93
66670;DHT22;53568;52.164;4.472;2022-07-22T13:00:58;20.69;56.13
66670;DHT22;53568;52.164;4.472;2022-07-22T13:03:24;20.39;57.24
66670;DHT22;53568;52.164;4.472;2022-07-22T13:05:55;20.25;56.15
66670;DHT22;53568;52.164;4.472;2022-07-22T13:08:22;20.21;56.87
66670;DHT22;53568;52.164;4.472;2022-07-22T13:10:49;20.43;56.82
66670;DHT22;53568;52.164;4.472;2022-07-22T13:13:14;20.62;56.11
66670;DHT22;53568;52.164;4.472;2022-07-22T13:15:40;20.72;55.59
66670;DHT22;53568;52.164;4.472;2022-07-22T13:18:05;20.73;55.96
66670;DHT22;53568;52.164;4.472;2022-07-22T13:20:31;20.59;55.20
66670;DHT22;53568;52.164;4.472;2022-07-22T13:22:57;20.63;55.65
66670;DHT22;53568;52.164;4.472;2022-07-22T13:25:23;20.41;55.51
66670;DHT22;53568;52.164;4.472;2022-07-22T13:27:52;20.45;55.88
66670;DHT22;53568;52.164;4.472;2022-07-22T13:30:18;20.41;56.17
66670;DHT22;53568;52.164;4.472;2022-07-22T13:32:44;20.55;54.96
66670;DHT22;53568;52.164;4.472;2022-07-22T13:35:09;20.39;55.96
66670;DHT22;53568;52.164;4.472;2022-07-22T13:37:35;20.59;55.07
66670;DHT22;53568;52.164;4.472;2022-07-22T13:40:02;20.45;55.23
66670;DHT22;53568;52.164;4.472;2022-07-22T13:42:27;20.55;54.84
66670;DHT22;53568;52.164;4.472;2022-07-22T13:44:53;20.56;55.12
66670;DHT22;53568;52.164;4.472;2022-07-22T13:47:20;20.62;55.41
66670;DHT22;53568;52.164;4.472;2022-07-22T13:49:46;20.41;55.82
66670;DHT22;53568;52.164;4.472;2022-07-22T13:52:12;20.43;55.77
66670;DHT22;53568;52.164;4.472;2022-07-22T13:54:38;20.29;55.41
66670;DHT22;53568;52.164;4.472;2022-07-22T13:57:04;20.25;55.78
66670;DHT22;53568;52.164;4.472;2022-07-22T13:59:31;20.28;56.24
66670;DHT22;53568;52.164;4.472;2022-07-22T14:01:57;20.21;55.86
66670;DHT22;53568;52.164;4.472;2022-07-22T14:04:24;20.35;56.22
66670;DHT22;53568;52.164;4.472;2022-07-22T14:06:49;20.39;55.31
66670;DHT22;53568;52.164;4.472;2022-07-22T14:09:15;20.65;55.17
66670;DHT22;53568;52.164;4.472;2022-07-22T14:11:41;20.61;55.35
66670;DHT22;53568;52.164;4.472;2022-07-22T14:14:06;20.57;55.51
66670;DHT22;53568;52.164;4.472;2022-07-22T14:16:37;20.29;56.33
66670;DHT22;53568;52.164;4.472;2022-07-22T14:19:11;20.26;56.93
66670;DHT22;53568;52.164;4.472;2022-07-22T14:21:39;20.31;56.55
66670;DHT22;53568;52.164;4.472;2022-07-22T14:24:07;20.32;56.84
66670;DHT22;53568;52.164;4.472;2022-07-22T14:26:37;20.29;56.06
66670;DHT22;53568;52.164;4.472;2022-07-22T14:29:15;20.12;56.68
66670;DHT22;53568;52.164;4.472;2022-07-22T14:31:43;20.11;57.00
66670;DHT22;53568;52.164;4.472;2022-07-22T14:34:14;20.22;57.06
66670;DHT22;53568;52.164;4.472;2022-07-22T14:36:42;20.26;57.23
66670;DHT22;53568;52.164;4.472;2022-07-22T14:39:08;20.41;57.35
66670;DHT22;53568;52.164;4.472;2022-07-22T14:41:33;20.45;56.65
66670;DHT22;53568;52.164;4.472;2022-07-22T14:43:59;20.19;56.77
66670;DHT22;53568;52.164;4.472;2022-07-22T14:46:30;20.12;57.27
66670;DHT22;53568;52.164;4.472;2022-07-22T14:49:05;20.14;57.52
66670;DHT22;53568;52.164;4.472;2022-07-22T14:51:36;20.09;57.99
66670;DHT22;53568;52.164;4.472;2022-07-22T14:54:11;20.05;58.13
66670;DHT22;53568;52.164;4.472;2022-07-22T14:56:40;20.19;58.69
66670;DHT22;53568;52.164;4.472;2022-07-22T14:59:07;20.29;56.79
66670;DHT22;53568;52.164;4.472;2022-07-22T15:01:35;20.31;56.71
66670;DHT22;53568;52.164;4.472;2022-07-22T15:04:15;20.22;56.33
66670;DHT22;53568;52.164;4.472;2022-07-22T15:06:43;20.07;56.86
66670;DHT22;53568;52.164;4.472;2022-07-22T15:09:09;19.99;57.09
66670;DHT22;53568;52.164;4.472;2022-07-22T15:11:39;20.11;57.27
66670;DHT22;53568;52.164;4.472;2022-07-22T15:14:13;20.04;57.56
66670;DHT22;53568;52.164;4.472;2022-07-22T15:16:38;20.04;57.14
66670;DHT22;53568;52.164;4.472;2022-07-22T15:19:04;20.05;57.38
66670;DHT22;53568;52.164;4.472;2022-07-22T15:21:30;20.29;56.92
66670;DHT22;53568;52.164;4.472;2022-07-22T15:23:57;20.22;56.80
66670;DHT22;53568;52.164;4.472;2022-07-22T15:26:23;20.25;56.68
66670;DHT22;53568;52.164;4.472;2022-07-22T15:28:48;20.08;57.09
66670;DHT22;53568;52.164;4.472;2022-07-22T15:31:16;20.01;57.58
66670;DHT22;53568;52.164;4.472;2022-07-22T15:33:42;19.79;58.85
66670;DHT22;53568;52.164;4.472;2022-07-22T15:36:10;19.71;58.59
66670;DHT22;53568;52.164;4.472;2022-07-22T15:38:37;19.68;59.22
66670;DHT22;53568;52.164;4.472;2022-07-22T15:41:06;19.64;58.51
66670;DHT22;53568;52.164;4.472;2022-07-22T15:43:56;19.50;59.10
66670;DHT22;53568;52.164;4.472;2022-07-22T15:46:24;19.53;58.76
66670;DHT22;53568;52.164;4.472;2022-07-22T15:48:50;19.51;58.20
66670;DHT22;53568;52.164;4.472;2022-07-22T15:51:18;19.55;58.48
66670;DHT22;53568;52.164;4.472;2022-07-22T15:53:43;19.63;58.77
66670;DHT22;53568;52.164;4.472;2022-07-22T15:56:17;19.74;58.10
66670;DHT22;53568;52.164;4.472;2022-07-22T15:58:45;19.81;57.52
66670;DHT22;53568;52.164;4.472;2022-07-22T16:01:29;19.89;56.76
66670;DHT22;53568;52.164;4.472;2022-07-22T16:03:55;19.87;56.01